Time;durP1;ratioP1;P1;durP2;ratioP2;P2;SDS_P1;SDS_P2;PMS_P1;PMS_P2;Temp;Humidity;BMP_temperature;BMP_pressure;BME280_temperature;BME280_humidity;BME280_pressure;Samples;Min_cycle;Max_cycle;Signal;HPM_P1;HPM_P2
2021/11/17 02:25:58;;;;;;;21.83;13.40;;;6.30;99.90;;;;;;5119422;28;20703;-68
2021/11/17 02:28:51;;;;;;;32.70;14.57;;;6.40;99.90;;;;;;5119011;28;20441;-69
2021/11/17 02:31:48;;;;;;;22.57;13.30;;;6.40;99.90;;;;;;5119117;28;20480;-67
2021/11/17 02:34:30;;;;;;;22.03;14.50;;;6.40;99.90;;;;;;5118428;28;20551;-67
2021/11/17 02:37:12;;;;;;;23.63;13.20;;;6.30;99.90;;;;;;5118915;28;20444;-68
2021/11/17 02:40:01;;;;;;;23.00;13.30;;;6.20;99.90;;;;;;5118884;28;20776;-67
2021/11/17 02:42:50;;;;;;;16.43;11.57;;;6.00;99.90;;;;;;5118928;27;20447;-67
2021/11/17 02:45:33;;;;;;;24.50;12.20;;;5.90;99.90;;;;;;5119003;28;20861;-67
2021/11/17 02:48:16;;;;;;;25.03;13.57;;;5.80;99.90;;;;;;5118407;28;20556;-68
2021/11/17 02:51:00;;;;;;;19.90;13.10;;;5.80;99.90;;;;;;5118736;28;20436;-68
2021/11/17 02:53:41;;;;;;;20.53;12.47;;;5.80;99.90;;;;;;5118928;28;20463;-68
2021/11/17 02:56:27;;;;;;;20.20;12.20;;;5.80;99.90;;;;;;5118798;28;20441;-68
2021/11/17 02:59:06;;;;;;;19.73;12.77;;;5.80;99.90;;;;;;5118381;28;20439;-68
2021/11/17 03:01:56;;;;;;;19.97;12.87;;;5.80;99.90;;;;;;5118412;28;20447;-68
2021/11/17 03:04:40;;;;;;;18.77;11.20;;;5.90;99.90;;;;;;5118085;28;20890;-69
2021/11/17 03:07:23;;;;;;;18.30;11.87;;;5.90;99.90;;;;;;5118311;28;20437;-67
2021/11/17 03:10:12;;;;;;;18.60;12.10;;;5.80;99.90;;;;;;5118369;28;20517;-67
2021/11/17 03:12:55;;;;;;;18.40;11.40;;;5.80;99.90;;;;;;5118088;28;20521;-68
2021/11/17 03:15:42;;;;;;;20.00;11.70;;;5.80;99.90;;;;;;5118454;28;20443;-67
2021/11/17 03:18:30;;;;;;;14.40;9.90;;;5.80;99.90;;;;;;5118130;28;20861;-67
2021/11/17 03:21:21;;;;;;;16.33;10.30;;;5.90;99.90;;;;;;5118097;28;20539;-67
2021/11/17 03:24:02;;;;;;;14.83;10.00;;;5.90;99.90;;;;;;5118339;28;20432;-69
2021/11/17 03:26:51;;;;;;;18.27;11.83;;;5.90;99.90;;;;;;5118318;28;20439;-67
2021/11/17 03:29:45;;;;;;;17.80;10.30;;;5.90;99.90;;;;;;5118047;28;20460;-67
2021/11/17 03:32:29;;;;;;;17.00;10.27;;;5.90;99.90;;;;;;5117728;28;20465;-67
2021/11/17 03:35:20;;;;;;;13.53;8.83;;;5.90;99.90;;;;;;5118174;28;20445;-67
2021/11/17 03:38:07;;;;;;;11.90;8.30;;;5.80;99.90;;;;;;5117688;28;20885;-68
2021/11/17 03:41:00;;;;;;;11.60;8.40;;;5.90;99.90;;;;;;5118179;28;20448;-67
2021/11/17 03:43:48;;;;;;;11.70;7.57;;;5.80;99.90;;;;;;5118267;28;20445;-67
2021/11/17 03:46:39;;;;;;;14.23;8.87;;;5.80;99.90;;;;;;5117804;28;20453;-67
2021/11/17 03:49:24;;;;;;;11.20;8.43;;;5.80;99.90;;;;;;5117829;28;20445;-67
2021/11/17 03:52:10;;;;;;;11.20;7.17;;;5.80;99.90;;;;;;5117677;28;20454;-69
2021/11/17 03:55:03;;;;;;;9.80;6.60;;;5.80;99.90;;;;;;5117383;28;20528;-68
2021/11/17 03:57:42;;;;;;;10.90;7.80;;;5.90;99.90;;;;;;5117373;27;20459;-68
2021/11/17 04:00:25;;;;;;;11.53;7.97;;;5.80;99.90;;;;;;5117361;28;20517;-68
2021/11/17 04:03:06;;;;;;;14.57;8.80;;;5.80;99.90;;;;;;5117106;28;20441;-68
2021/11/17 04:05:51;;;;;;;10.40;7.77;;;5.90;99.90;;;;;;5117439;27;20451;-68
2021/11/17 04:08:39;;;;;;;13.00;9.00;;;5.90;99.90;;;;;;5116983;27;20441;-68
2021/11/17 04:11:19;;;;;;;13.57;9.27;;;5.90;99.90;;;;;;5114576;28;20464;-68
2021/11/17 04:13:58;;;;;;;12.53;8.67;;;5.90;99.90;;;;;;5116982;28;20464;-68
2021/11/17 04:16:38;;;;;;;14.80;8.83;;;5.90;99.90;;;;;;5117246;28;20437;-68
2021/11/17 04:19:19;;;;;;;12.87;8.83;;;5.90;99.90;;;;;;5117057;28;20444;-67
2021/11/17 04:22:01;;;;;;;12.00;8.20;;;5.90;99.90;;;;;;5116726;28;20487;-67
2021/11/17 04:24:49;;;;;;;14.43;9.57;;;5.90;99.90;;;;;;5116777;28;20441;-67
2021/11/17 04:27:28;;;;;;;12.57;8.17;;;5.90;99.90;;;;;;5117133;28;20440;-68
2021/11/17 04:30:33;;;;;;;11.40;7.90;;;5.90;99.90;;;;;;5116471;28;20441;-68
2021/11/17 04:33:23;;;;;;;10.33;7.87;;;5.90;99.90;;;;;;5081033;27;20480;-67
2021/11/17 04:36:17;;;;;;;11.90;8.17;;;5.90;99.90;;;;;;5114686;28;20471;-67
2021/11/17 04:39:12;;;;;;;8.40;6.20;;;5.90;99.90;;;;;;5116110;28;20470;-68
2021/11/17 04:42:06;;;;;;;8.63;5.87;;;5.90;99.90;;;;;;5116275;28;20437;-68
2021/11/17 04:44:59;;;;;;;7.57;5.90;;;5.80;99.90;;;;;;5116077;28;20448;-68
2021/11/17 04:47:50;;;;;;;8.70;6.50;;;5.80;99.90;;;;;;5116175;27;20827;-69
2021/11/17 04:50:51;;;;;;;7.13;5.40;;;5.80;99.90;;;;;;5116589;28;20448;-68
2021/11/17 04:53:34;;;;;;;7.53;5.90;;;5.80;99.90;;;;;;5116638;28;20463;-68
2021/11/17 04:56:14;;;;;;;7.57;5.90;;;5.80;99.90;;;;;;5116685;28;20441;-69
2021/11/17 04:58:54;;;;;;;7.30;6.00;;;5.80;99.90;;;;;;5116479;28;20448;-69
2021/11/17 05:01:49;;;;;;;8.13;6.30;;;5.70;99.90;;;;;;5116359;28;20865;-67
2021/11/17 05:04:30;;;;;;;9.60;5.90;;;5.70;99.90;;;;;;5114031;28;20460;-69
2021/11/17 05:07:11;;;;;;;8.17;6.20;;;5.60;99.90;;;;;;5115943;28;20473;-70
2021/11/17 05:09:47;;;;;;;6.60;5.53;;;5.60;99.90;;;;;;5119719;28;20444;-71
2021/11/17 05:12:26;;;;;;;7.67;5.57;;;5.60;99.90;;;;;;5121087;28;20447;-67
2021/11/17 05:15:01;;;;;;;8.47;6.40;;;5.50;99.90;;;;;;5121086;28;20441;-67
2021/11/17 05:17:38;;;;;;;8.50;6.30;;;5.60;99.90;;;;;;5121735;28;20864;-67
2021/11/17 05:20:19;;;;;;;8.43;6.90;;;5.60;99.90;;;;;;5121718;28;20439;-67
2021/11/17 05:23:03;;;;;;;8.83;7.03;;;5.60;99.90;;;;;;5121578;28;20436;-67
2021/11/17 05:25:46;;;;;;;8.70;6.37;;;5.50;99.90;;;;;;5121625;28;20432;-67
2021/11/17 05:28:31;;;;;;;9.57;7.07;;;5.50;99.90;;;;;;5120513;28;20775;-67
2021/11/17 05:31:10;;;;;;;11.20;8.70;;;5.60;99.90;;;;;;5119681;28;20930;-67
2021/11/17 05:34:03;;;;;;;10.30;6.90;;;5.60;99.90;;;;;;5121018;28;20463;-68
2021/11/17 05:36:40;;;;;;;14.77;9.80;;;5.60;99.90;;;;;;5122023;28;20959;-68
2021/11/17 05:39:20;;;;;;;11.30;7.93;;;5.60;99.90;;;;;;5120287;28;20436;-66
2021/11/17 05:42:00;;;;;;;10.97;8.50;;;5.60;99.90;;;;;;5120256;28;20475;-67
2021/11/17 05:44:41;;;;;;;11.90;8.57;;;5.60;99.90;;;;;;5120138;28;20447;-66
2021/11/17 05:47:21;;;;;;;8.70;6.97;;;5.60;99.90;;;;;;5121171;28;20878;-67
2021/11/17 05:49:59;;;;;;;11.60;7.53;;;5.70;99.90;;;;;;5121298;28;20440;-67
2021/11/17 05:52:38;;;;;;;9.30;7.50;;;5.60;99.90;;;;;;5120934;28;20440;-67
2021/11/17 05:55:24;;;;;;;14.20;8.70;;;5.60;99.90;;;;;;5121390;28;20514;-68
2021/11/17 05:58:04;;;;;;;12.80;9.00;;;5.60;99.90;;;;;;5121668;28;20448;-67
2021/11/17 06:00:53;;;;;;;9.03;7.50;;;5.60;99.90;;;;;;5122664;28;20543;-68
2021/11/17 06:03:35;;;;;;;10.73;7.97;;;5.60;99.90;;;;;;5122203;28;20437;-68
2021/11/17 06:06:01;;;;;;;15.33;8.30;;;5.60;99.90;;;;;;5121864;28;20456;-67
2021/11/17 06:08:28;;;;;;;9.77;8.00;;;5.70;99.90;;;;;;5120911;28;20486;-67
2021/11/17 06:10:59;;;;;;;11.00;7.00;;;5.70;99.90;;;;;;5121407;28;20461;-68
2021/11/17 06:13:26;;;;;;;10.00;7.20;;;5.80;99.90;;;;;;5122322;28;20526;-67
2021/11/17 06:15:54;;;;;;;10.17;7.60;;;5.70;99.90;;;;;;5120977;28;20456;-68
2021/11/17 06:18:24;;;;;;;9.83;7.90;;;5.70;99.90;;;;;;5121205;28;20830;-68
2021/11/17 06:20:51;;;;;;;10.23;7.20;;;5.70;99.90;;;;;;5120036;28;20989;-68
2021/11/17 06:23:22;;;;;;;12.23;8.27;;;5.80;99.90;;;;;;5121661;28;20440;-68
2021/11/17 06:25:49;;;;;;;13.80;8.67;;;5.70;99.90;;;;;;5121433;28;20814;-68
2021/11/17 06:28:23;;;;;;;13.50;10.10;;;5.70;99.90;;;;;;5121673;28;20466;-68
2021/11/17 06:30:51;;;;;;;11.10;7.80;;;5.70;99.90;;;;;;5121890;28;20508;-68
2021/11/17 06:33:18;;;;;;;10.47;8.50;;;5.70;99.90;;;;;;5122274;28;20483;-68
2021/11/17 06:35:45;;;;;;;15.13;9.80;;;5.70;99.90;;;;;;5121330;28;20512;-68
2021/11/17 06:38:12;;;;;;;13.70;8.50;;;5.70;99.90;;;;;;5121102;28;20457;-67
2021/11/17 06:40:42;;;;;;;14.27;8.10;;;5.70;99.90;;;;;;5121912;28;20457;-68
2021/11/17 06:43:10;;;;;;;12.47;8.57;;;5.70;99.90;;;;;;5122098;28;20558;-67
2021/11/17 06:45:41;;;;;;;14.37;9.40;;;5.70;99.90;;;;;;5121455;28;20554;-67
2021/11/17 06:48:09;;;;;;;13.77;9.33;;;5.60;99.90;;;;;;5121418;28;20500;-68
2021/11/17 06:50:38;;;;;;;14.43;8.77;;;5.60;99.90;;;;;;5121264;28;20818;-67
2021/11/17 06:53:06;;;;;;;13.83;9.50;;;5.50;99.90;;;;;;5122070;28;20955;-68
2021/11/17 06:55:36;;;;;;;14.87;10.10;;;5.60;99.90;;;;;;5121034;28;20505;-67
2021/11/17 06:58:03;;;;;;;11.90;9.20;;;5.50;99.90;;;;;;5120955;28;20468;-68
2021/11/17 07:00:32;;;;;;;16.00;10.13;;;5.50;99.90;;;;;;5120850;28;20445;-68
2021/11/17 07:03:03;;;;;;;17.83;10.33;;;5.50;99.90;;;;;;5121372;28;20482;-68
2021/11/17 07:05:30;;;;;;;14.90;9.50;;;5.50;99.90;;;;;;5121266;28;20911;-68
2021/11/17 07:07:59;;;;;;;17.83;10.43;;;5.50;99.90;;;;;;5124709;28;20479;-68
2021/11/17 07:10:28;;;;;;;17.03;11.27;;;5.50;99.90;;;;;;5124687;27;20943;-68
2021/11/17 07:12:55;;;;;;;14.03;9.00;;;5.40;99.90;;;;;;5124226;28;20451;-68
2021/11/17 07:15:23;;;;;;;15.13;9.80;;;5.50;99.90;;;;;;5124217;28;20512;-68
2021/11/17 07:17:51;;;;;;;14.77;9.67;;;5.50;99.90;;;;;;5124823;28;20916;-68
2021/11/17 07:20:20;;;;;;;16.00;10.50;;;5.60;99.90;;;;;;5124045;28;20470;-68
2021/11/17 07:22:46;;;;;;;14.97;10.20;;;5.60;99.90;;;;;;5125131;27;20435;-68
2021/11/17 07:25:15;;;;;;;17.63;10.30;;;5.70;99.90;;;;;;5124294;27;20459;-68
2021/11/17 07:27:43;;;;;;;15.27;9.80;;;5.70;99.90;;;;;;5123889;27;20461;-70
2021/11/17 07:30:12;;;;;;;17.07;10.20;;;5.70;99.90;;;;;;5123355;28;20487;-69
2021/11/17 07:32:43;;;;;;;14.60;10.00;;;5.80;99.90;;;;;;5122873;28;20454;-68
2021/11/17 07:35:11;;;;;;;16.87;10.90;;;5.80;99.90;;;;;;5122714;28;20481;-67
2021/11/17 07:37:39;;;;;;;14.20;10.57;;;5.80;99.90;;;;;;5123417;27;20455;-67
2021/11/17 07:40:08;;;;;;;16.70;10.57;;;5.80;99.90;;;;;;5125005;28;20471;-67
2021/11/17 07:42:35;;;;;;;16.33;10.03;;;5.80;99.90;;;;;;5124475;28;20468;-69
2021/11/17 07:45:02;;;;;;;14.20;9.93;;;5.80;99.90;;;;;;5124064;28;20453;-68
2021/11/17 07:47:29;;;;;;;15.10;10.40;;;5.80;99.90;;;;;;5124084;27;20982;-68
2021/11/17 07:49:55;;;;;;;14.67;10.33;;;5.80;99.90;;;;;;5123824;28;20461;-68
2021/11/17 07:52:22;;;;;;;15.37;9.77;;;5.80;99.90;;;;;;5123437;28;20886;-68
2021/11/17 07:54:50;;;;;;;14.80;10.10;;;5.80;99.90;;;;;;5123085;27;20478;-68
2021/11/17 07:57:18;;;;;;;14.87;9.77;;;5.90;99.90;;;;;;5124091;28;20465;-68
2021/11/17 07:59:45;;;;;;;15.87;9.70;;;5.90;99.90;;;;;;5123677;28;20457;-68
2021/11/17 08:02:14;;;;;;;16.50;10.97;;;5.90;99.90;;;;;;5123225;28;20485;-68
2021/11/17 08:04:42;;;;;;;17.57;10.73;;;5.90;99.90;;;;;;5123573;28;20938;-68
2021/11/17 08:07:13;;;;;;;13.40;9.30;;;5.90;99.90;;;;;;5123321;28;20784;-67
2021/11/17 08:09:40;;;;;;;13.83;9.70;;;5.90;99.90;;;;;;5123809;27;20442;-68
2021/11/17 08:12:09;;;;;;;16.30;9.67;;;5.80;99.90;;;;;;5123121;28;20452;-68
2021/11/17 08:14:35;;;;;;;14.43;10.13;;;5.80;99.90;;;;;;5123628;28;20491;-67
2021/11/17 08:17:02;;;;;;;14.37;9.90;;;5.80;99.90;;;;;;5123326;28;20467;-68
2021/11/17 08:19:29;;;;;;;15.33;10.67;;;5.80;99.90;;;;;;5122483;28;20458;-68
2021/11/17 08:21:56;;;;;;;17.10;10.90;;;5.80;99.90;;;;;;5122727;28;20480;-67
2021/11/17 08:24:22;;;;;;;16.30;11.57;;;5.80;99.90;;;;;;5122634;28;20499;-68
2021/11/17 08:26:49;;;;;;;18.20;12.67;;;5.80;99.90;;;;;;5122594;27;20460;-67
2021/11/17 08:29:17;;;;;;;17.50;10.50;;;5.70;99.90;;;;;;5122677;28;20921;-67
2021/11/17 08:31:44;;;;;;;14.63;10.70;;;5.80;99.90;;;;;;5123083;28;20453;-68
2021/11/17 08:34:10;;;;;;;19.87;11.70;;;5.80;99.90;;;;;;5122690;28;20485;-68
2021/11/17 08:36:37;;;;;;;15.43;11.30;;;5.80;99.90;;;;;;5122794;28;20494;-68
2021/11/17 08:39:05;;;;;;;20.90;10.60;;;5.80;99.90;;;;;;5123134;28;20468;-68
2021/11/17 08:41:31;;;;;;;12.70;9.17;;;5.80;99.90;;;;;;5122251;28;20953;-68
2021/11/17 08:43:58;;;;;;;14.57;9.50;;;5.80;99.90;;;;;;5122920;28;20515;-67
2021/11/17 08:46:27;;;;;;;17.83;10.40;;;5.90;99.90;;;;;;5122184;27;20457;-67
2021/11/17 08:48:56;;;;;;;16.27;10.83;;;5.90;99.90;;;;;;5122023;28;20550;-68
2021/11/17 08:51:30;;;;;;;16.47;10.70;;;5.90;99.90;;;;;;5122977;28;20453;-68
2021/11/17 08:53:57;;;;;;;15.97;10.67;;;5.90;99.90;;;;;;5122108;28;20472;-68
2021/11/17 08:56:23;;;;;;;15.87;10.30;;;5.90;99.90;;;;;;5122741;28;20461;-67
2021/11/17 08:58:50;;;;;;;17.10;10.77;;;5.90;99.90;;;;;;5122376;27;20789;-68
2021/11/17 09:01:18;;;;;;;14.53;9.57;;;5.90;99.90;;;;;;5122259;28;20785;-68
2021/11/17 09:03:46;;;;;;;17.17;10.50;;;5.90;99.90;;;;;;5122156;28;20477;-68
2021/11/17 09:06:14;;;;;;;16.00;9.13;;;6.00;99.90;;;;;;5122493;28;20460;-68
2021/11/17 09:08:42;;;;;;;16.43;10.87;;;6.00;99.90;;;;;;5122944;28;20464;-68
2021/11/17 09:11:11;;;;;;;16.00;10.70;;;6.00;99.90;;;;;;5122819;27;20456;-68
2021/11/17 09:13:39;;;;;;;13.20;8.90;;;6.00;99.90;;;;;;5121581;28;20477;-68
2021/11/17 09:16:07;;;;;;;13.10;9.33;;;6.00;99.90;;;;;;5122653;28;20892;-67
2021/11/17 09:18:36;;;;;;;16.07;10.23;;;5.90;99.90;;;;;;5121970;28;20460;-68
2021/11/17 09:21:07;;;;;;;16.50;10.20;;;6.00;99.90;;;;;;5120383;28;20510;-68
2021/11/17 09:23:34;;;;;;;16.83;10.87;;;6.00;99.90;;;;;;5121296;28;20464;-70
2021/11/17 09:26:02;;;;;;;15.93;10.77;;;5.90;99.90;;;;;;5121882;28;20517;-68
2021/11/17 09:28:33;;;;;;;16.63;11.07;;;6.00;99.90;;;;;;5121883;28;20466;-67
2021/11/17 09:30:59;;;;;;;14.50;9.40;;;6.00;99.90;;;;;;5121845;28;20437;-69
2021/11/17 09:33:27;;;;;;;16.03;9.57;;;6.00;99.90;;;;;;5121548;28;20464;-67
2021/11/17 09:35:55;;;;;;;18.67;10.03;;;6.10;99.90;;;;;;5120755;28;20446;-68
2021/11/17 09:38:24;;;;;;;16.20;9.57;;;6.10;99.90;;;;;;5119975;28;20461;-67
2021/11/17 09:40:54;;;;;;;11.97;8.73;;;6.10;99.90;;;;;;5121466;28;20472;-67
2021/11/17 09:43:24;;;;;;;17.10;10.40;;;6.10;99.90;;;;;;5120587;28;20481;-68
2021/11/17 09:45:53;;;;;;;14.90;9.33;;;6.00;99.90;;;;;;5120643;28;20437;-68
2021/11/17 09:48:23;;;;;;;15.97;11.07;;;6.10;99.90;;;;;;5120284;28;20452;-67
2021/11/17 09:50:55;;;;;;;18.30;11.10;;;6.10;99.90;;;;;;5120387;28;20449;-67
2021/11/17 09:53:39;;;;;;;18.00;11.20;;;6.10;99.90;;;;;;5120059;28;20502;-68
2021/11/17 09:56:08;;;;;;;17.47;10.20;;;6.10;99.90;;;;;;5120899;28;20441;-68
2021/11/17 09:58:38;;;;;;;12.57;8.40;;;6.10;99.90;;;;;;5120594;28;20989;-68
2021/11/17 10:01:08;;;;;;;16.30;9.10;;;6.10;99.90;;;;;;5120352;28;20453;-68
2021/11/17 10:03:40;;;;;;;15.20;8.83;;;6.10;99.90;;;;;;5120809;28;20467;-67
2021/11/17 10:11:59;;;;;;;14.63;9.30;;;6.20;99.90;;;;;;5120279;28;20432;-73
2021/11/17 10:14:31;;;;;;;12.93;9.63;;;6.20;99.90;;;;;;5120627;28;20601;-68
2021/11/17 10:16:58;;;;;;;13.13;9.17;;;6.20;99.90;;;;;;5120597;28;20442;-68
2021/11/17 10:19:28;;;;;;;13.40;9.03;;;6.30;99.90;;;;;;5121475;28;20475;-69
2021/11/17 10:22:02;;;;;;;16.07;8.80;;;6.30;99.90;;;;;;5120905;28;20905;-68
2021/11/17 10:24:43;;;;;;;15.40;9.30;;;6.30;99.90;;;;;;5120705;28;20763;-68
2021/11/17 10:27:13;;;;;;;14.50;8.30;;;6.30;99.90;;;;;;5121833;28;20438;-69
2021/11/17 10:29:43;;;;;;;14.20;9.50;;;6.20;99.90;;;;;;5120526;28;20461;-68
2021/11/17 10:32:18;;;;;;;15.60;10.10;;;6.20;99.90;;;;;;5120717;28;20461;-68
2021/11/17 10:34:52;;;;;;;13.60;8.90;;;6.20;99.90;;;;;;5120396;28;20475;-68
2021/11/17 10:37:27;;;;;;;12.93;8.07;;;6.20;99.90;;;;;;5121070;28;20434;-68
2021/11/17 10:39:55;;;;;;;14.63;9.00;;;6.30;99.90;;;;;;5121013;28;20448;-67
2021/11/17 10:42:30;;;;;;;20.90;9.77;;;6.30;99.90;;;;;;5122534;28;20456;-69
2021/11/17 10:45:01;;;;;;;12.37;7.90;;;6.40;99.90;;;;;;5124449;28;20444;-69
2021/11/17 10:47:36;;;;;;;12.93;8.80;;;6.40;99.90;;;;;;5124548;28;20452;-67
2021/11/17 10:50:19;;;;;;;15.80;9.13;;;6.30;99.90;;;;;;5125223;28;20453;-67
2021/11/17 10:52:51;;;;;;;15.03;9.43;;;6.30;99.90;;;;;;5123538;28;20881;-68
2021/11/17 10:55:25;;;;;;;14.47;8.63;;;6.30;99.90;;;;;;5124731;28;20843;-67
2021/11/17 10:57:52;;;;;;;17.13;9.20;;;6.30;99.90;;;;;;5125706;28;20460;-68
2021/11/17 11:00:22;;;;;;;12.97;9.10;;;6.30;99.90;;;;;;5124941;28;20468;-67
2021/11/17 11:02:51;;;;;;;12.90;8.60;;;6.30;99.90;;;;;;5125851;27;20442;-68
2021/11/17 11:05:20;;;;;;;14.10;9.37;;;6.30;99.90;;;;;;5121142;27;20490;-68
2021/11/17 11:07:52;;;;;;;15.57;9.07;;;6.40;99.90;;;;;;5119031;28;20510;-68
2021/11/17 11:10:24;;;;;;;12.03;8.33;;;6.40;99.90;;;;;;5119131;28;20532;-68
2021/11/17 11:12:54;;;;;;;15.03;8.90;;;6.50;99.90;;;;;;5119125;28;20794;-72
2021/11/17 11:15:24;;;;;;;11.40;7.90;;;6.50;99.90;;;;;;5118825;28;21017;-65
2021/11/17 11:18:23;;;;;;;13.57;8.90;;;6.50;99.90;;;;;;5122016;28;20521;-67
2021/11/17 11:20:52;;;;;;;12.43;8.77;;;6.40;99.90;;;;;;5119707;28;20482;-66
2021/11/17 11:23:26;;;;;;;11.97;8.50;;;6.40;99.90;;;;;;5119905;27;20899;-74
2021/11/17 11:26:13;;;;;;;13.53;9.80;;;6.40;99.90;;;;;;5118494;28;20758;-68
2021/11/17 11:28:45;;;;;;;11.70;8.83;;;6.40;99.90;;;;;;5118143;28;20460;-67
2021/11/17 11:31:31;;;;;;;11.50;9.40;;;6.40;99.90;;;;;;5118091;28;20434;-67
2021/11/17 11:34:33;;;;;;;13.47;8.50;;;6.40;99.90;;;;;;5117711;28;20449;-67
2021/11/17 11:37:01;;;;;;;14.90;9.70;;;6.40;99.90;;;;;;5117341;27;20772;-67
2021/11/17 11:39:41;;;;;;;21.57;9.10;;;6.30;99.90;;;;;;5117457;28;20457;-67
2021/11/17 11:42:42;;;;;;;15.00;9.77;;;6.30;99.90;;;;;;5117675;28;20829;-67
2021/11/17 11:45:42;;;;;;;14.50;8.83;;;6.30;99.90;;;;;;5117541;28;20756;-70
2021/11/17 11:48:10;;;;;;;19.70;8.70;;;6.30;99.90;;;;;;5118259;28;20482;-67
2021/11/17 11:50:55;;;;;;;13.77;8.90;;;6.30;99.90;;;;;;5119144;28;20449;-66
2021/11/17 11:53:54;;;;;;;11.10;8.23;;;6.40;99.90;;;;;;5118257;28;20452;-68
2021/11/17 11:56:28;;;;;;;10.93;7.67;;;6.40;99.90;;;;;;5117592;28;20492;-68
2021/11/17 11:59:05;;;;;;;11.03;7.97;;;6.30;99.90;;;;;;5116714;27;20505;-67
2021/11/17 12:01:32;;;;;;;17.27;9.70;;;6.30;99.90;;;;;;5117155;28;20497;-67
2021/11/17 12:04:03;;;;;;;13.30;8.13;;;6.30;99.90;;;;;;5116960;28;20534;-67
2021/11/17 12:06:41;;;;;;;14.63;9.10;;;6.30;99.90;;;;;;5117416;28;20464;-67
2021/11/17 12:09:21;;;;;;;18.67;8.17;;;6.40;99.90;;;;;;5117225;28;20445;-67
2021/11/17 12:11:53;;;;;;;11.67;8.30;;;6.40;99.90;;;;;;5116960;28;20501;-66
2021/11/17 12:14:43;;;;;;;12.17;8.60;;;6.40;99.90;;;;;;5116984;28;20761;-67
2021/11/17 12:17:11;;;;;;;14.30;9.20;;;6.40;99.90;;;;;;5116310;28;20441;-67
2021/11/17 12:19:46;;;;;;;16.50;9.27;;;6.40;99.90;;;;;;5116633;27;20457;-68
2021/11/17 12:22:16;;;;;;;14.97;10.30;;;6.40;99.90;;;;;;5117187;28;20503;-67
2021/11/17 12:24:45;;;;;;;15.43;9.30;;;6.40;99.90;;;;;;5117165;27;20768;-67
2021/11/17 12:27:15;;;;;;;13.17;9.27;;;6.40;99.90;;;;;;5116597;28;20889;-66
2021/11/17 12:29:52;;;;;;;14.53;9.50;;;6.40;99.90;;;;;;5116909;28;20562;-67
2021/11/17 12:32:25;;;;;;;16.53;10.70;;;6.40;99.90;;;;;;5116737;28;20825;-66
2021/11/17 12:34:59;;;;;;;16.87;11.60;;;6.40;99.90;;;;;;5116250;28;20465;-68
2021/11/17 12:37:31;;;;;;;15.13;10.57;;;6.40;99.90;;;;;;5116233;28;20438;-67
2021/11/17 12:40:08;;;;;;;15.90;10.00;;;6.50;99.90;;;;;;5115941;28;20901;-67
2021/11/17 12:42:38;;;;;;;12.57;8.73;;;6.50;99.90;;;;;;5116378;28;20475;-66
2021/11/17 12:45:19;;;;;;;14.70;8.70;;;6.60;99.90;;;;;;5116688;28;20449;-66
2021/11/17 12:47:50;;;;;;;10.40;8.13;;;6.70;99.90;;;;;;5115979;28;20910;-67
2021/11/17 12:50:23;;;;;;;9.60;7.07;;;6.70;99.90;;;;;;5116168;28;20449;-66
2021/11/17 12:52:55;;;;;;;12.87;6.57;;;6.80;99.90;;;;;;5116577;28;20905;-68
2021/11/17 12:55:29;;;;;;;8.57;5.40;;;6.80;99.90;;;;;;5116577;28;20542;-66
2021/11/17 12:58:00;;;;;;;10.13;6.30;;;6.80;99.90;;;;;;5117051;28;20456;-68
2021/11/17 13:00:55;;;;;;;8.47;6.60;;;6.80;99.90;;;;;;5115793;28;20922;-68
2021/11/17 13:03:54;;;;;;;10.50;7.37;;;6.80;99.90;;;;;;5116972;28;20503;-67
2021/11/17 13:06:27;;;;;;;10.20;7.10;;;6.80;99.90;;;;;;5115489;28;20479;-67
2021/11/17 13:09:10;;;;;;;10.80;7.00;;;6.90;99.90;;;;;;5116344;28;20438;-67
2021/11/17 13:11:57;;;;;;;10.57;6.23;;;6.90;99.90;;;;;;5116328;27;20430;-67
2021/11/17 13:14:27;;;;;;;11.07;6.80;;;6.90;99.90;;;;;;5115540;28;20438;-68
2021/11/17 13:17:03;;;;;;;9.33;5.67;;;6.90;99.90;;;;;;5116011;28;20468;-67
2021/11/17 13:19:32;;;;;;;9.00;6.07;;;6.90;99.90;;;;;;5116353;28;20441;-67
2021/11/17 13:22:01;;;;;;;11.23;7.40;;;6.90;99.90;;;;;;5115899;28;20492;-67
2021/11/17 13:24:41;;;;;;;9.70;6.30;;;6.90;99.90;;;;;;5115537;28;20454;-67
2021/11/17 13:27:21;;;;;;;13.83;8.40;;;7.00;99.90;;;;;;5115404;28;20442;-67
2021/11/17 13:29:53;;;;;;;11.93;7.90;;;7.00;99.90;;;;;;5115626;28;20454;-67
2021/11/17 13:32:32;;;;;;;11.60;6.90;;;7.10;99.90;;;;;;5115373;28;20761;-67
2021/11/17 13:35:01;;;;;;;11.53;7.13;;;7.10;99.90;;;;;;5114737;28;20933;-66
2021/11/17 13:37:36;;;;;;;10.80;7.10;;;7.10;99.90;;;;;;5115236;28;20464;-67
2021/11/17 13:40:08;;;;;;;12.40;7.50;;;7.10;99.90;;;;;;5115448;28;20448;-67
2021/11/17 13:42:35;;;;;;;11.20;7.70;;;7.10;99.90;;;;;;5115516;28;20472;-67
2021/11/17 13:45:05;;;;;;;8.70;6.33;;;7.10;99.90;;;;;;5115196;28;20453;-67
2021/11/17 13:47:34;;;;;;;8.77;6.43;;;7.10;99.90;;;;;;5115236;28;20887;-67
2021/11/17 13:50:02;;;;;;;9.93;6.83;;;7.00;99.90;;;;;;5115113;28;20449;-67
2021/11/17 13:52:32;;;;;;;10.67;6.33;;;7.10;99.90;;;;;;5114979;28;20781;-67
2021/11/17 13:54:59;;;;;;;9.67;7.13;;;7.00;99.90;;;;;;5114802;28;20438;-67
2021/11/17 13:57:26;;;;;;;11.40;7.53;;;7.00;99.90;;;;;;5115448;28;20487;-66
2021/11/17 13:59:53;;;;;;;12.27;7.90;;;7.00;99.90;;;;;;5115000;28;20548;-67
2021/11/17 14:02:22;;;;;;;12.40;8.07;;;7.00;99.90;;;;;;5114910;28;20938;-67
2021/11/17 14:04:50;;;;;;;11.07;8.00;;;7.10;99.90;;;;;;5114914;28;20459;-67
2021/11/17 14:07:20;;;;;;;9.53;7.10;;;7.00;99.90;;;;;;5115278;28;20483;-67
2021/11/17 14:09:47;;;;;;;10.53;7.87;;;7.00;99.90;;;;;;5114831;28;20465;-67
2021/11/17 14:12:15;;;;;;;13.33;7.90;;;7.10;99.90;;;;;;5115070;28;20455;-67
2021/11/17 14:14:42;;;;;;;11.00;8.17;;;7.10;99.90;;;;;;5114460;28;20473;-67
2021/11/17 14:17:09;;;;;;;11.70;7.80;;;7.10;99.90;;;;;;5117425;28;20484;-67
2021/11/17 14:19:36;;;;;;;13.33;7.97;;;7.10;99.90;;;;;;5119813;28;20804;-68
2021/11/17 14:22:05;;;;;;;10.27;7.30;;;7.30;99.90;;;;;;5119099;28;20482;-67
2021/11/17 14:24:32;;;;;;;16.13;8.23;;;7.40;99.90;;;;;;5118796;28;20455;-67
2021/11/17 14:27:00;;;;;;;10.87;7.20;;;7.50;99.90;;;;;;5118979;28;20453;-67
2021/11/17 14:29:32;;;;;;;9.60;7.40;;;7.40;99.90;;;;;;5119203;28;20579;-67
2021/11/17 14:32:02;;;;;;;9.47;7.40;;;7.40;99.90;;;;;;5119303;28;21032;-66
2021/11/17 14:34:30;;;;;;;12.10;7.20;;;7.20;99.90;;;;;;5119281;28;20720;-67
2021/11/17 14:37:04;;;;;;;10.77;7.43;;;7.20;99.90;;;;;;5119310;28;20482;-67
2021/11/17 14:39:33;;;;;;;10.23;7.30;;;7.30;99.90;;;;;;5118810;28;20908;-66
2021/11/17 14:41:59;;;;;;;9.30;7.20;;;7.30;99.90;;;;;;5118502;28;20453;-67
2021/11/17 14:44:26;;;;;;;12.27;6.87;;;7.30;99.90;;;;;;5118925;28;20537;-67
2021/11/17 14:46:53;;;;;;;10.23;7.23;;;7.30;99.90;;;;;;5119064;27;20456;-68
2021/11/17 14:49:20;;;;;;;9.40;6.87;;;7.30;99.90;;;;;;5119059;28;20472;-68
2021/11/17 14:51:47;;;;;;;12.60;8.03;;;7.30;99.90;;;;;;5118818;28;20449;-68
2021/11/17 14:54:14;;;;;;;16.90;7.47;;;7.30;99.90;;;;;;5118890;28;20481;-67
2021/11/17 14:56:44;;;;;;;10.10;7.20;;;7.30;99.90;;;;;;5118522;28;20484;-68
2021/11/17 14:59:13;;;;;;;9.50;6.80;;;7.30;99.90;;;;;;5118399;28;20458;-67
2021/11/17 15:01:42;;;;;;;12.10;7.70;;;7.40;99.90;;;;;;5118183;28;20463;-67
2021/11/17 15:04:09;;;;;;;21.60;8.23;;;7.30;99.90;;;;;;5117854;28;20518;-67
2021/11/17 15:06:39;;;;;;;11.90;7.73;;;7.30;99.90;;;;;;5118171;28;20450;-67
2021/11/17 15:09:07;;;;;;;9.80;7.53;;;7.20;99.90;;;;;;5118158;28;20470;-66
2021/11/17 15:11:50;;;;;;;11.23;7.40;;;7.10;99.90;;;;;;5118262;28;20467;-67
2021/11/17 15:14:17;;;;;;;12.33;8.10;;;7.00;99.90;;;;;;5117990;28;20561;-68
2021/11/17 15:16:45;;;;;;;14.40;9.10;;;6.80;99.90;;;;;;5117816;28;20942;-67
2021/11/17 15:19:12;;;;;;;20.00;8.60;;;6.80;99.90;;;;;;5118125;28;20464;-67
2021/11/17 15:21:39;;;;;;;11.87;7.80;;;6.90;99.90;;;;;;5117511;28;20481;-66
2021/11/17 15:24:06;;;;;;;11.90;7.30;;;6.90;99.90;;;;;;5118471;28;20934;-67
2021/11/17 15:26:33;;;;;;;11.10;7.87;;;6.90;99.90;;;;;;5117857;27;20450;-67
2021/11/17 15:29:04;;;;;;;9.60;7.80;;;6.80;99.90;;;;;;5117524;28;20468;-66
2021/11/17 15:31:31;;;;;;;13.30;8.30;;;6.80;99.90;;;;;;5117706;28;20441;-67
2021/11/17 15:33:58;;;;;;;10.57;7.60;;;6.80;99.90;;;;;;5117902;28;20765;-67
2021/11/17 15:36:25;;;;;;;11.60;7.20;;;6.80;99.90;;;;;;5117357;28;20489;-67
2021/11/17 15:38:53;;;;;;;8.80;7.43;;;6.90;99.90;;;;;;5117654;28;20465;-67
2021/11/17 15:41:22;;;;;;;9.53;7.03;;;6.80;99.90;;;;;;5117772;27;20458;-66
2021/11/17 15:43:51;;;;;;;10.20;7.60;;;6.80;99.90;;;;;;5117487;28;20951;-68
2021/11/17 15:46:19;;;;;;;11.00;7.10;;;6.80;99.90;;;;;;5117745;27;20773;-67
2021/11/17 15:48:46;;;;;;;10.13;7.47;;;6.80;99.90;;;;;;5117683;28;20460;-67
2021/11/17 15:51:17;;;;;;;9.00;7.17;;;6.80;99.90;;;;;;5117205;28;20449;-68
2021/11/17 15:53:44;;;;;;;10.70;7.30;;;6.80;99.90;;;;;;5117442;28;20441;-67